Time;durP1;ratioP1;P1;durP2;ratioP2;P2;SDS_P1;SDS_P2;PMS_P1;PMS_P2;Temp;Humidity;BMP_temperature;BMP_pressure;BME280_temperature;BME280_humidity;BME280_pressure;Samples;Min_cycle;Max_cycle;Signal;HPM_P1;HPM_P2
2022/01/06 00:02:03;;;;;;;;;;;;;;;2.86;100.00;101482.50;5053652;28;19932;-86
2022/01/06 00:04:29;;;;;;;;;;;;;;;2.81;100.00;101487.34;5054966;28;20339;-86
2022/01/06 00:06:55;;;;;;;;;;;;;;;2.86;100.00;101485.09;5062887;28;19921;-85
2022/01/06 00:09:22;;;;;;;;;;;;;;;2.81;100.00;101481.22;5054125;28;20353;-82
2022/01/06 00:11:51;;;;;;;;;;;;;;;2.76;100.00;101483.47;5053073;28;19921;-85
2022/01/06 00:14:36;;;;;;;;;;;;;;;2.76;100.00;101486.06;5055015;28;19924;-84
2022/01/06 00:25:30;;;;;;;;;;;;;;;2.81;100.00;101499.41;5054722;28;20042;-84
2022/01/06 00:27:55;;;;;;;;;;;;;;;2.84;100.00;101502.25;5053759;28;19990;-83
2022/01/06 00:30:20;;;;;;;;;;;;;;;2.95;100.00;101505.69;5054185;28;20000;-84
2022/01/06 00:32:45;;;;;;;;;;;;;;;2.97;100.00;101498.94;5053089;28;20007;-86
2022/01/06 00:35:10;;;;;;;;;;;;;;;2.90;100.00;101499.25;5053738;28;19929;-81
2022/01/06 00:37:36;;;;;;;;;;;;;;;2.79;100.00;101499.31;5051400;28;19921;-82
2022/01/06 00:40:01;;;;;;;;;;;;;;;2.73;100.00;101495.31;5053316;28;19944;-85
2022/01/06 00:42:34;;;;;;;;;;;;;;;2.59;100.00;101489.06;5036614;28;19924;-86
2022/01/06 00:45:00;;;;;;;;;;;;;;;2.54;100.00;101493.00;5053674;28;19932;-81
2022/01/06 00:47:25;;;;;;;;;;;;;;;2.39;100.00;101497.88;5053887;28;19921;-84
2022/01/06 00:49:50;;;;;;;;;;;;;;;2.24;100.00;101495.00;5053243;28;19924;-86
2022/01/06 00:52:18;;;;;;;;;;;;;;;2.19;100.00;101498.88;5053539;28;19921;-86
2022/01/06 00:54:44;;;;;;;;;;;;;;;2.12;100.00;101505.28;5057604;28;19928;-84
2022/01/06 00:57:12;;;;;;;;;;;;;;;2.20;100.00;101504.22;5061195;28;19921;-86
2022/01/06 00:59:37;;;;;;;;;;;;;;;2.12;100.00;101506.19;5059193;28;19928;-81
2022/01/06 01:02:02;;;;;;;;;;;;;;;2.14;100.00;101508.91;5057052;28;19924;-82
2022/01/06 01:04:28;;;;;;;;;;;;;;;2.05;100.00;101505.56;5058640;28;19921;-80
2022/01/06 01:06:53;;;;;;;;;;;;;;;2.10;100.00;101512.06;5058011;28;20414;-83
2022/01/06 01:09:18;;;;;;;;;;;;;;;2.28;100.00;101505.72;5058163;28;19991;-81
2022/01/06 01:11:44;;;;;;;;;;;;;;;2.40;100.00;101512.69;5058684;28;19982;-81
2022/01/06 01:14:25;;;;;;;;;;;;;;;2.43;100.00;101508.63;5058606;28;20375;-84
2022/01/06 01:16:56;;;;;;;;;;;;;;;2.47;100.00;101526.31;5058994;28;19917;-83
2022/01/06 01:19:22;;;;;;;;;;;;;;;2.44;100.00;101520.88;5058804;28;20447;-79
2022/01/06 01:21:49;;;;;;;;;;;;;;;2.42;100.00;101526.72;5056413;28;19960;-84
2022/01/06 01:24:14;;;;;;;;;;;;;;;2.38;100.00;101530.78;5056395;28;19924;-80
2022/01/06 01:26:40;;;;;;;;;;;;;;;2.36;100.00;101532.31;5057257;28;20309;-85
2022/01/06 01:29:09;;;;;;;;;;;;;;;2.32;100.00;101538.09;5056125;28;19925;-82
2022/01/06 01:31:42;;;;;;;;;;;;;;;2.35;100.00;101540.94;5056082;28;19928;-82
2022/01/06 01:34:09;;;;;;;;;;;;;;;2.36;100.00;101540.13;5056628;28;19927;-79
2022/01/06 01:36:34;;;;;;;;;;;;;;;2.33;100.00;101534.69;5055907;28;20268;-82
2022/01/06 01:39:00;;;;;;;;;;;;;;;2.41;100.00;101551.81;5056016;28;19916;-80
2022/01/06 01:41:25;;;;;;;;;;;;;;;2.41;100.00;101546.63;5056404;28;19924;-78
2022/01/06 01:43:53;;;;;;;;;;;;;;;2.34;100.00;101550.41;5055885;28;19927;-80
2022/01/06 01:46:21;;;;;;;;;;;;;;;2.20;100.00;101545.78;5056042;28;19920;-79
2022/01/06 01:48:54;;;;;;;;;;;;;;;2.06;100.00;101552.47;5055649;28;20015;-79
2022/01/06 01:51:19;;;;;;;;;;;;;;;2.03;100.00;101548.72;5056927;28;19927;-78
2022/01/06 01:53:46;;;;;;;;;;;;;;;1.89;100.00;101545.00;5055341;28;19920;-80
2022/01/06 01:56:12;;;;;;;;;;;;;;;1.90;100.00;101550.31;5056012;28;19916;-82
2022/01/06 01:58:39;;;;;;;;;;;;;;;1.83;100.00;101560.06;5055446;28;19921;-80
2022/01/06 02:01:05;;;;;;;;;;;;;;;1.76;100.00;101567.34;5056415;28;20416;-79
2022/01/06 02:03:33;;;;;;;;;;;;;;;1.78;100.00;101573.56;5055267;28;20018;-79
2022/01/06 02:05:58;;;;;;;;;;;;;;;1.88;100.00;101574.34;5053972;28;20391;-78
2022/01/06 02:08:23;;;;;;;;;;;;;;;1.95;100.00;101574.06;5056556;28;19924;-79
2022/01/06 02:10:48;;;;;;;;;;;;;;;1.94;100.00;101575.78;5055252;28;19921;-80
2022/01/06 02:13:15;;;;;;;;;;;;;;;1.88;100.00;101579.53;5054864;28;19924;-79
2022/01/06 02:15:40;;;;;;;;;;;;;;;1.81;100.00;101579.81;5055472;28;19956;-79
2022/01/06 02:18:05;;;;;;;;;;;;;;;1.82;100.00;101581.63;5056738;28;19921;-78
2022/01/06 02:20:31;;;;;;;;;;;;;;;1.77;100.00;101581.25;5054722;28;19920;-79
2022/01/06 02:22:58;;;;;;;;;;;;;;;1.69;100.00;101580.59;5037632;28;20359;-81
2022/01/06 02:25:28;;;;;;;;;;;;;;;1.65;100.00;101586.34;5054804;28;20546;-81
2022/01/06 02:27:54;;;;;;;;;;;;;;;1.58;100.00;101578.81;5055057;28;19924;-80
2022/01/06 02:30:21;;;;;;;;;;;;;;;1.57;100.00;101590.88;5055150;28;19975;-79
2022/01/06 02:32:48;;;;;;;;;;;;;;;1.54;100.00;101584.50;5055421;28;19925;-81
2022/01/06 02:35:18;;;;;;;;;;;;;;;1.46;100.00;101586.50;5054138;28;19920;-82
2022/01/06 02:37:43;;;;;;;;;;;;;;;1.42;100.00;101589.59;5054729;28;19924;-80
2022/01/06 02:40:16;;;;;;;;;;;;;;;1.35;100.00;101588.19;5054771;28;19920;-81
2022/01/06 02:42:45;;;;;;;;;;;;;;;1.36;100.00;101589.97;5054816;28;19948;-78
2022/01/06 02:45:11;;;;;;;;;;;;;;;1.40;100.00;101601.53;5056128;28;20249;-78
2022/01/06 02:47:36;;;;;;;;;;;;;;;1.49;100.00;101607.53;5054758;28;19947;-78
2022/01/06 02:50:03;;;;;;;;;;;;;;;1.57;100.00;101614.25;5054497;28;20124;-80
2022/01/06 02:52:29;;;;;;;;;;;;;;;1.73;100.00;101624.22;5053861;28;20411;-77
2022/01/06 02:54:54;;;;;;;;;;;;;;;1.87;100.00;101616.69;5053200;28;19920;-80
2022/01/06 02:57:19;;;;;;;;;;;;;;;1.92;100.00;101620.56;5054682;28;20276;-85
2022/01/06 02:59:45;;;;;;;;;;;;;;;1.89;100.00;101620.31;5054376;28;20430;-79
2022/01/06 03:02:13;;;;;;;;;;;;;;;1.83;100.00;101617.22;5054669;28;19924;-82
2022/01/06 03:04:38;;;;;;;;;;;;;;;1.81;100.00;101621.38;5054172;28;19927;-81
2022/01/06 03:07:04;;;;;;;;;;;;;;;1.70;100.00;101629.16;5054553;28;19921;-79
2022/01/06 03:09:38;;;;;;;;;;;;;;;1.71;100.00;101618.00;5053898;28;19921;-80
2022/01/06 03:12:06;;;;;;;;;;;;;;;1.73;100.00;101621.63;5054074;28;19925;-79
2022/01/06 03:14:32;;;;;;;;;;;;;;;1.81;100.00;101614.47;5054391;28;19966;-78
2022/01/06 03:16:58;;;;;;;;;;;;;;;1.85;100.00;101605.25;5053897;28;20361;-82
2022/01/06 03:19:24;;;;;;;;;;;;;;;1.78;100.00;101612.53;5053810;28;19966;-84
2022/01/06 03:21:49;;;;;;;;;;;;;;;1.72;100.00;101612.00;5037372;28;19929;-86
2022/01/06 03:24:16;;;;;;;;;;;;;;;1.64;100.00;101618.25;5054160;28;19921;-85
2022/01/06 03:26:41;;;;;;;;;;;;;;;1.65;100.00;101617.50;5054000;28;19928;-80
2022/01/06 03:29:06;;;;;;;;;;;;;;;1.60;100.00;101616.19;5053586;28;19921;-86
2022/01/06 03:31:31;;;;;;;;;;;;;;;1.58;100.00;101620.34;5053864;28;19928;-85
2022/01/06 03:34:08;;;;;;;;;;;;;;;1.57;100.00;101615.91;5055079;28;19924;-84
2022/01/06 03:36:33;;;;;;;;;;;;;;;1.56;100.00;101614.13;5055433;28;19921;-82
2022/01/06 03:38:58;;;;;;;;;;;;;;;1.53;100.00;101621.66;5057854;28;19928;-83
2022/01/06 03:41:24;;;;;;;;;;;;;;;1.51;100.00;101620.59;5053893;28;19987;-84
2022/01/06 03:43:50;;;;;;;;;;;;;;;1.48;100.00;101639.44;5053904;28;19917;-83
2022/01/06 03:46:15;;;;;;;;;;;;;;;1.77;100.00;101639.31;5055373;28;19947;-82
2022/01/06 03:48:40;;;;;;;;;;;;;;;1.93;100.00;101640.59;5055071;28;20345;-80
2022/01/06 03:51:06;;;;;;;;;;;;;;;2.03;100.00;101635.34;5054178;28;19935;-80
2022/01/06 03:53:31;;;;;;;;;;;;;;;2.31;100.00;101629.81;5054068;28;19928;-79
2022/01/06 03:55:56;;;;;;;;;;;;;;;2.44;100.00;101644.72;5055074;28;19920;-79
2022/01/06 03:58:21;;;;;;;;;;;;;;;2.65;100.00;101640.34;5054646;28;19925;-79
2022/01/06 04:00:47;;;;;;;;;;;;;;;2.62;100.00;101654.00;5054030;28;19948;-81
2022/01/06 04:03:14;;;;;;;;;;;;;;;2.57;100.00;101652.75;5055102;28;20357;-77
2022/01/06 04:05:39;;;;;;;;;;;;;;;2.57;100.00;101651.84;5054366;28;19943;-80
2022/01/06 04:08:05;;;;;;;;;;;;;;;2.50;100.00;101660.81;5055342;28;19921;-79
2022/01/06 04:10:30;;;;;;;;;;;;;;;2.43;100.00;101653.31;5054484;28;19925;-81
2022/01/06 04:13:02;;;;;;;;;;;;;;;2.34;100.00;101654.38;5054250;28;19986;-85
2022/01/06 04:15:29;;;;;;;;;;;;;;;2.28;100.00;101659.06;5053986;28;19943;-84
2022/01/06 04:17:54;;;;;;;;;;;;;;;2.21;100.00;101666.25;5053819;28;19956;-87
2022/01/06 04:20:19;;;;;;;;;;;;;;;2.05;100.00;101670.19;5037145;28;19928;-81
2022/01/06 04:22:49;;;;;;;;;;;;;;;1.97;100.00;101666.00;5053434;28;20460;-82
2022/01/06 04:25:14;;;;;;;;;;;;;;;1.84;100.00;101669.28;5053779;28;19933;-83
2022/01/06 04:27:39;;;;;;;;;;;;;;;1.72;100.00;101670.84;5053206;28;19943;-88
2022/01/06 04:30:05;;;;;;;;;;;;;;;1.66;100.00;101670.31;5060847;28;19925;-83
2022/01/06 04:32:34;;;;;;;;;;;;;;;1.59;100.00;101666.31;5060126;28;20357;-80
2022/01/06 04:34:59;;;;;;;;;;;;;;;1.48;100.00;101669.69;5057607;28;19925;-80
2022/01/06 04:37:25;;;;;;;;;;;;;;;1.41;100.00;101671.75;5057341;28;19927;-86
2022/01/06 04:39:51;;;;;;;;;;;;;;;1.36;100.00;101675.63;5056769;28;20642;-80
2022/01/06 04:42:17;;;;;;;;;;;;;;;1.34;100.00;101674.59;5057472;28;19925;-81
2022/01/06 04:44:42;;;;;;;;;;;;;;;1.29;100.00;101678.47;5058262;28;19925;-82
2022/01/06 04:47:08;;;;;;;;;;;;;;;1.29;100.00;101680.13;5058045;28;19927;-81
2022/01/06 04:49:33;;;;;;;;;;;;;;;1.21;100.00;101687.25;5056813;28;19935;-80
2022/01/06 04:51:58;;;;;;;;;;;;;;;1.16;100.00;101675.59;5040199;28;19936;-79
2022/01/06 04:54:23;;;;;;;;;;;;;;;1.12;100.00;101683.88;5057011;28;19952;-81
2022/01/06 04:56:49;;;;;;;;;;;;;;;1.12;100.00;101689.06;5058055;28;19925;-79
2022/01/06 04:59:14;;;;;;;;;;;;;;;1.11;100.00;101689.84;5057133;28;19970;-79
2022/01/06 05:01:39;;;;;;;;;;;;;;;1.10;100.00;101688.03;5056159;28;19921;-79
2022/01/06 05:04:06;;;;;;;;;;;;;;;1.08;100.00;101691.38;5056392;28;19948;-79
2022/01/06 05:06:32;;;;;;;;;;;;;;;1.14;100.00;101700.50;5057130;28;19928;-80
2022/01/06 05:08:57;;;;;;;;;;;;;;;1.10;100.00;101701.00;5056039;28;19925;-82
2022/01/06 05:11:22;;;;;;;;;;;;;;;1.09;100.00;101710.47;5056204;28;19920;-79
2022/01/06 05:13:53;;;;;;;;;;;;;;;1.02;100.00;101708.09;5056273;28;19928;-82
2022/01/06 05:16:18;;;;;;;;;;;;;;;0.99;100.00;101708.72;5073370;28;20015;-80
2022/01/06 05:18:43;;;;;;;;;;;;;;;0.94;100.00;101712.63;5056503;28;19952;-81
2022/01/06 05:21:08;;;;;;;;;;;;;;;0.96;100.00;101716.25;5057024;28;19963;-79
2022/01/06 05:23:40;;;;;;;;;;;;;;;0.94;100.00;101716.91;5057894;28;19917;-78
2022/01/06 05:26:06;;;;;;;;;;;;;;;0.87;100.00;101718.03;5057753;28;19921;-80
2022/01/06 05:28:31;;;;;;;;;;;;;;;0.89;100.00;101721.69;5056552;28;19917;-80
2022/01/06 05:30:56;;;;;;;;;;;;;;;0.89;100.00;101726.88;5056496;28;19982;-79
2022/01/06 05:33:26;;;;;;;;;;;;;;;0.81;100.00;101731.38;5056048;28;19925;-83
2022/01/06 05:35:52;;;;;;;;;;;;;;;0.83;100.00;101734.09;5056505;28;19929;-83
2022/01/06 05:38:17;;;;;;;;;;;;;;;0.82;100.00;101734.88;5056431;28;19921;-80
2022/01/06 05:40:42;;;;;;;;;;;;;;;0.75;100.00;101729.91;5056701;28;19925;-80
2022/01/06 05:43:08;;;;;;;;;;;;;;;0.76;100.00;101726.53;5055750;28;19967;-85
2022/01/06 05:45:33;;;;;;;;;;;;;;;0.79;100.00;101726.81;5055610;28;19921;-81
2022/01/06 05:47:58;;;;;;;;;;;;;;;0.76;100.00;101730.03;5056908;28;20020;-83
2022/01/06 05:50:23;;;;;;;;;;;;;;;0.80;100.00;101737.31;5055380;28;19920;-80
2022/01/06 05:52:54;;;;;;;;;;;;;;;0.76;100.00;101736.91;5055307;28;19921;-81
2022/01/06 05:55:19;;;;;;;;;;;;;;;0.69;100.00;101749.31;5055175;28;19921;-81
2022/01/06 05:57:44;;;;;;;;;;;;;;;0.62;100.00;101754.75;5055492;28;19977;-84
2022/01/06 06:00:10;;;;;;;;;;;;;;;0.61;100.00;101760.69;5055685;28;20361;-81
2022/01/06 06:02:37;;;;;;;;;;;;;;;0.61;100.00;101755.50;5055047;28;19987;-84
2022/01/06 06:05:04;;;;;;;;;;;;;;;0.57;100.00;101761.16;5055555;28;19925;-85
2022/01/06 06:07:29;;;;;;;;;;;;;;;0.53;100.00;101766.88;5055557;28;20622;-83
2022/01/06 06:09:55;;;;;;;;;;;;;;;0.51;100.00;101768.38;5056910;28;19928;-83
2022/01/06 06:12:22;;;;;;;;;;;;;;;0.46;100.00;101770.56;5056947;28;19921;-87
2022/01/06 06:14:47;;;;;;;;;;;;;;;0.47;100.00;101774.09;5056843;28;20349;-79
2022/01/06 06:17:17;;;;;;;;;;;;;;;0.43;100.00;101779.75;5060620;28;19978;-79
2022/01/06 06:19:43;;;;;;;;;;;;;;;0.41;100.00;101778.72;5061765;28;19924;-79
2022/01/06 06:22:14;;;;;;;;;;;;;;;0.40;100.00;101787.25;5062098;28;19921;-82
2022/01/06 06:24:40;;;;;;;;;;;;;;;0.39;100.00;101788.00;5060993;28;19916;-81
2022/01/06 06:27:06;;;;;;;;;;;;;;;0.33;100.00;101797.03;5040322;28;19925;-84
2022/01/06 06:29:31;;;;;;;;;;;;;;;0.30;100.00;101796.75;5055518;28;19920;-79
2022/01/06 06:32:04;;;;;;;;;;;;;;;0.24;100.00;101800.47;5055167;28;19975;-86
2022/01/06 06:34:29;;;;;;;;;;;;;;;0.23;100.00;101807.31;5058034;28;19921;-80
2022/01/06 06:36:54;;;;;;;;;;;;;;;0.17;100.00;101812.84;5058692;28;20356;-81
2022/01/06 06:39:21;;;;;;;;;;;;;;;0.16;100.00;101812.72;5059530;28;19921;-83
2022/01/06 06:41:46;;;;;;;;;;;;;;;0.13;100.00;101821.09;5040569;28;19929;-86
2022/01/06 06:44:12;;;;;;;;;;;;;;;0.14;100.00;101816.81;5057451;28;19931;-85
2022/01/06 06:46:37;;;;;;;;;;;;;;;0.11;100.00;101822.66;5039304;28;19921;-81
2022/01/06 06:49:02;;;;;;;;;;;;;;;0.11;100.00;101830.41;5055820;28;19929;-84
2022/01/06 06:51:27;;;;;;;;;;;;;;;0.11;100.00;101825.22;5055031;28;19921;-82
2022/01/06 06:53:53;;;;;;;;;;;;;;;0.14;100.00;101835.88;5055090;28;20375;-83
2022/01/06 06:56:18;;;;;;;;;;;;;;;0.10;100.00;101833.75;5055337;28;19933;-83
2022/01/06 06:58:43;;;;;;;;;;;;;;;0.10;100.00;101832.84;5055057;28;19931;-82
2022/01/06 07:01:09;;;;;;;;;;;;;;;0.06;100.00;101835.91;5054919;28;19963;-81
2022/01/06 07:03:36;;;;;;;;;;;;;;;0.03;100.00;101835.63;5054450;28;19921;-84
2022/01/06 07:06:01;;;;;;;;;;;;;;;0.04;100.00;101842.66;5054056;28;20019;-83
2022/01/06 07:08:26;;;;;;;;;;;;;;;0.03;100.00;101841.72;5054022;28;19960;-80
2022/01/06 07:10:52;;;;;;;;;;;;;;;-0.05;100.00;101841.03;5059378;28;19924;-85
2022/01/06 07:13:20;;;;;;;;;;;;;;;-0.02;100.00;101835.19;5040074;28;19932;-84
2022/01/06 07:15:46;;;;;;;;;;;;;;;-0.03;100.00;101842.06;5054554;28;19920;-83
2022/01/06 07:18:11;;;;;;;;;;;;;;;-0.01;100.00;101848.28;5055291;28;20085;-80
2022/01/06 07:20:36;;;;;;;;;;;;;;;-0.02;100.00;101845.56;5053967;28;20325;-79
2022/01/06 07:23:07;;;;;;;;;;;;;;;-0.08;100.00;101855.34;5055699;28;19925;-83
2022/01/06 07:25:32;;;;;;;;;;;;;;;-0.11;100.00;101853.38;5055339;28;19921;-84
2022/01/06 07:27:58;;;;;;;;;;;;;;;-0.10;100.00;101855.19;5055632;28;19921;-85
2022/01/06 07:30:24;;;;;;;;;;;;;;;-0.08;100.00;101857.91;5039469;28;19931;-84
2022/01/06 07:32:50;;;;;;;;;;;;;;;-0.11;100.00;101858.56;5055075;28;20264;-83
2022/01/06 07:35:16;;;;;;;;;;;;;;;-0.11;100.00;101868.00;5055698;28;19925;-82
2022/01/06 07:37:42;;;;;;;;;;;;;;;-0.15;100.00;101864.22;5056071;28;19917;-81
2022/01/06 07:40:09;;;;;;;;;;;;;;;-0.15;100.00;101865.91;5058228;28;19974;-82
2022/01/06 07:42:38;;;;;;;;;;;;;;;-0.12;100.00;101872.25;5056853;28;19928;-83
2022/01/06 07:45:04;;;;;;;;;;;;;;;-0.10;100.00;101875.91;5056266;28;19928;-84
2022/01/06 07:47:31;;;;;;;;;;;;;;;-0.11;100.00;101880.94;5056590;28;19921;-81
2022/01/06 07:49:57;;;;;;;;;;;;;;;-0.11;100.00;101884.47;5056314;28;19924;-80
2022/01/06 07:52:24;;;;;;;;;;;;;;;-0.12;100.00;101885.22;5058511;28;19929;-82
2022/01/06 07:54:52;;;;;;;;;;;;;;;-0.11;100.00;101880.94;5056953;28;20008;-85
2022/01/06 07:57:17;;;;;;;;;;;;;;;-0.12;100.00;101892.97;5057426;28;19974;-86
2022/01/06 07:59:43;;;;;;;;;;;;;;;-0.05;100.00;101889.28;5056206;28;20303;-82
2022/01/06 08:02:09;;;;;;;;;;;;;;;0.03;100.00;101892.59;5055885;28;19928;-82
2022/01/06 08:04:35;;;;;;;;;;;;;;;0.06;100.00;101888.63;5061249;28;19992;-82
2022/01/06 08:07:00;;;;;;;;;;;;;;;0.10;100.00;101905.38;5062352;28;19952;-82
2022/01/06 08:09:26;;;;;;;;;;;;;;;0.09;100.00;101911.31;5060445;28;19920;-84
2022/01/06 08:11:51;;;;;;;;;;;;;;;0.14;100.00;101912.66;5059258;28;20079;-84
2022/01/06 08:14:16;;;;;;;;;;;;;;;0.20;100.00;101918.41;5058390;28;19921;-85
2022/01/06 08:16:42;;;;;;;;;;;;;;;0.32;100.00;101922.16;5058633;28;19921;-86
2022/01/06 08:19:07;;;;;;;;;;;;;;;0.44;100.00;101909.47;5058413;28;19921;-86
2022/01/06 08:21:33;;;;;;;;;;;;;;;0.54;100.00;101913.81;5043896;28;19936;-85
2022/01/06 08:23:58;;;;;;;;;;;;;;;0.68;94.20;101920.28;5061523;28;19921;-84
2022/01/06 08:26:23;;;;;;;;;;;;;;;0.81;88.52;101920.66;5060916;28;20428;-85
2022/01/06 08:28:50;;;;;;;;;;;;;;;0.96;84.23;101923.72;5060223;28;19920;-84
2022/01/06 08:31:16;;;;;;;;;;;;;;;1.07;80.95;101930.84;5059690;28;20352;-85
2022/01/06 08:34:03;;;;;;;;;;;;;;;1.19;78.81;101927.53;5059613;28;19928;-88
2022/01/06 08:36:29;;;;;;;;;;;;;;;1.33;77.41;101932.28;5058166;28;19921;-87
2022/01/06 08:38:55;;;;;;;;;;;;;;;1.41;77.13;101931.31;5058821;28;19920;-88
2022/01/06 08:41:20;;;;;;;;;;;;;;;1.52;77.65;101921.84;5058033;28;19921;-88
2022/01/06 08:43:52;;;;;;;;;;;;;;;1.64;78.26;101926.34;5056349;28;19928;-88
2022/01/06 08:46:17;;;;;;;;;;;;;;;1.77;79.17;101935.34;5056795;28;19935;-87
2022/01/06 08:48:42;;;;;;;;;;;;;;;1.89;79.81;101937.22;5040393;28;19928;-89
2022/01/06 08:51:08;;;;;;;;;;;;;;;2.00;80.83;101941.66;5056849;28;20280;-88
2022/01/06 08:53:35;;;;;;;;;;;;;;;2.09;81.86;101944.16;5056619;28;19928;-89
2022/01/06 08:56:00;;;;;;;;;;;;;;;2.13;87.43;101947.16;5056970;28;19921;-88
2022/01/06 08:58:26;;;;;;;;;;;;;;;2.19;95.22;101938.06;5047988;28;19959;-85
2022/01/06 09:00:51;;;;;;;;;;;;;;;2.24;100.00;101937.69;5058384;28;19950;-86
2022/01/06 09:03:16;;;;;;;;;;;;;;;2.22;100.00;101930.53;5055119;28;20356;-85
2022/01/06 09:05:41;;;;;;;;;;;;;;;2.22;100.00;101934.06;5056228;28;20425;-86
2022/01/06 09:08:07;;;;;;;;;;;;;;;2.18;100.00;101929.38;5040021;28;19925;-87
2022/01/06 09:10:34;;;;;;;;;;;;;;;2.14;100.00;101927.28;5056062;28;19951;-86
2022/01/06 09:13:07;;;;;;;;;;;;;;;2.15;100.00;101931.69;5056422;28;19931;-85
2022/01/06 09:15:32;;;;;;;;;;;;;;;2.13;100.00;101933.25;5055588;28;19925;-87
2022/01/06 09:17:59;;;;;;;;;;;;;;;2.17;100.00;101935.34;5056458;28;20325;-88
2022/01/06 09:20:24;;;;;;;;;;;;;;;2.19;100.00;101933.81;5056211;28;19924;-86
2022/01/06 09:23:00;;;;;;;;;;;;;;;2.23;100.00;101935.88;5055884;28;20308;-83
2022/01/06 09:25:27;;;;;;;;;;;;;;;2.27;100.00;101934.44;5056656;28;19951;-85
2022/01/06 09:27:54;;;;;;;;;;;;;;;2.33;100.00;101937.56;5055690;28;20503;-86
2022/01/06 09:30:25;;;;;;;;;;;;;;;2.40;100.00;101939.03;5055911;28;19929;-86
2022/01/06 09:32:55;;;;;;;;;;;;;;;2.48;100.00;101936.28;5056634;28;19970;-87
2022/01/06 09:35:21;;;;;;;;;;;;;;;2.54;100.00;101938.50;5041966;28;19921;-88
2022/01/06 09:37:49;;;;;;;;;;;;;;;2.58;100.00;101944.88;5037471;28;19939;-86
2022/01/06 09:40:16;;;;;;;;;;;;;;;2.50;100.00;101939.94;5055732;28;19946;-83
2022/01/06 09:42:47;;;;;;;;;;;;;;;2.55;100.00;101944.63;5054915;28;19948;-84
2022/01/06 09:45:13;;;;;;;;;;;;;;;2.60;100.00;101943.34;5054997;28;19929;-83
2022/01/06 09:47:38;;;;;;;;;;;;;;;2.69;100.00;101944.13;5055716;28;19920;-86
2022/01/06 09:50:05;;;;;;;;;;;;;;;2.76;100.00;101941.25;5056741;28;19929;-82
2022/01/06 09:52:33;;;;;;;;;;;;;;;2.92;100.00;101942.53;5059802;28;19920;-82
2022/01/06 09:54:59;;;;;;;;;;;;;;;3.04;100.00;101943.56;5056407;28;20019;-86
2022/01/06 09:57:24;;;;;;;;;;;;;;;3.15;100.00;101939.25;5055456;28;19956;-85
2022/01/06 09:59:52;;;;;;;;;;;;;;;3.25;100.00;101944.47;5055883;28;20255;-85
2022/01/06 10:02:34;;;;;;;;;;;;;;;3.26;100.00;101937.56;5055729;28;19920;-87
2022/01/06 10:04:59;;;;;;;;;;;;;;;3.37;100.00;101924.66;5055358;28;19964;-83
2022/01/06 10:07:25;;;;;;;;;;;;;;;3.49;100.00;101923.81;5054695;28;19928;-89
2022/01/06 10:09:50;;;;;;;;;;;;;;;3.50;100.00;101926.56;5054907;28;19967;-85
2022/01/06 10:12:16;;;;;;;;;;;;;;;3.46;100.00;101919.25;5038501;28;19951;-86
2022/01/06 10:14:44;;;;;;;;;;;;;;;3.50;100.00;101916.13;5055047;28;19928;-85
2022/01/06 10:17:11;;;;;;;;;;;;;;;3.56;100.00;101910.53;5054707;28;19994;-87
2022/01/06 10:19:40;;;;;;;;;;;;;;;3.61;100.00;101908.31;5054709;28;20269;-84
2022/01/06 10:22:17;;;;;;;;;;;;;;;3.66;100.00;101906.97;5056282;28;19921;-81
2022/01/06 10:24:44;;;;;;;;;;;;;;;3.72;100.00;101886.63;5055783;28;19921;-84
2022/01/06 10:27:12;;;;;;;;;;;;;;;3.77;100.00;101895.69;5055410;28;19935;-88
2022/01/06 10:29:39;;;;;;;;;;;;;;;3.73;100.00;101896.25;5054123;28;20237;-85
2022/01/06 10:32:08;;;;;;;;;;;;;;;3.82;100.00;101883.94;5054151;28;19928;-85
2022/01/06 10:34:34;;;;;;;;;;;;;;;3.86;100.00;101879.91;5054939;28;19920;-83
2022/01/06 10:37:00;;;;;;;;;;;;;;;3.91;100.00;101883.78;5054304;28;19970;-87
2022/01/06 10:39:27;;;;;;;;;;;;;;;3.87;100.00;101880.03;5055360;28;19960;-86
2022/01/06 10:41:52;;;;;;;;;;;;;;;4.02;100.00;101871.59;5055773;28;19931;-86
2022/01/06 10:44:17;;;;;;;;;;;;;;;4.02;100.00;101871.59;5057238;28;20003;-84
2022/01/06 10:46:43;;;;;;;;;;;;;;;4.09;100.00;101869.59;5042338;28;20349;-87
2022/01/06 10:49:10;;;;;;;;;;;;;;;4.20;100.00;101869.53;5055337;28;19925;-89
2022/01/06 10:51:44;;;;;;;;;;;;;;;4.31;100.00;101872.16;5054248;28;19963;-87
2022/01/06 10:54:11;;;;;;;;;;;;;;;4.38;100.00;101864.81;5054459;28;19966;-88
2022/01/06 10:56:36;;;;;;;;;;;;;;;4.63;100.00;101868.53;5054198;28;20384;-90
2022/01/06 10:59:02;;;;;;;;;;;;;;;4.76;100.00;101861.63;5054387;28;19921;-90
2022/01/06 11:01:31;;;;;;;;;;;;;;;4.82;100.00;101863.00;5053884;28;19928;-88
2022/01/06 11:03:56;;;;;;;;;;;;;;;4.80;100.00;101864.59;5053379;28;19921;-88
2022/01/06 11:06:24;;;;;;;;;;;;;;;4.84;100.00;101853.56;5053609;28;19928;-87
2022/01/06 11:08:52;;;;;;;;;;;;;;;4.70;100.00;101851.63;5052967;28;20268;-89
2022/01/06 11:14:15;;;;;;;;;;;;;;;4.56;100.00;101855.78;4983151;28;19937;-83
2022/01/06 11:16:43;;;;;;;;;;;;;;;4.61;100.00;101858.75;5054333;28;20486;-88
2022/01/06 11:19:09;;;;;;;;;;;;;;;4.58;100.00;101850.69;5054813;28;19970;-87
2022/01/06 11:21:39;;;;;;;;;;;;;;;4.66;100.00;101853.09;5054608;28;19921;-89
2022/01/06 11:24:20;;;;;;;;;;;;;;;4.73;100.00;101853.56;5055023;28;20007;-91
2022/01/06 11:27:05;;;;;;;;;;;;;;;4.80;100.00;101843.72;5054190;28;19936;-87
2022/01/06 11:29:35;;;;;;;;;;;;;;;4.79;100.00;101849.72;5053373;28;20336;-87
2022/01/06 11:32:04;;;;;;;;;;;;;;;4.80;100.00;101848.94;5053670;28;19927;-90
2022/01/06 11:34:35;;;;;;;;;;;;;;;4.75;100.00;101841.53;5054479;28;19924;-87
2022/01/06 11:37:08;;;;;;;;;;;;;;;4.78;100.00;101839.16;5053755;28;19917;-88
2022/01/06 11:39:33;;;;;;;;;;;;;;;4.73;100.00;101835.31;5061220;28;19921;-86
2022/01/06 11:42:12;;;;;;;;;;;;;;;4.60;100.00;101841.28;5054741;28;19966;-84
2022/01/06 11:44:47;;;;;;;;;;;;;;;4.51;100.00;101832.78;5053882;28;20070;-85
2022/01/06 11:47:13;;;;;;;;;;;;;;;4.45;100.00;101830.59;5037972;28;20019;-86
2022/01/06 11:49:42;;;;;;;;;;;;;;;4.45;100.00;101831.50;5054155;28;19925;-86
2022/01/06 11:52:10;;;;;;;;;;;;;;;4.36;100.00;101832.50;5053246;28;19950;-84
2022/01/06 11:55:04;;;;;;;;;;;;;;;4.34;100.00;101823.66;5054002;28;19990;-85
2022/01/06 11:57:34;;;;;;;;;;;;;;;4.21;100.00;101813.97;5037211;28;19917;-82
2022/01/06 12:00:20;;;;;;;;;;;;;;;4.31;100.00;101813.91;5052363;28;19959;-84
2022/01/06 12:03:04;;;;;;;;;;;;;;;4.30;100.00;101813.00;5052445;28;20614;-80
2022/01/06 12:05:48;;;;;;;;;;;;;;;4.35;100.00;101807.22;5051484;28;19920;-85
2022/01/06 12:08:15;;;;;;;;;;;;;;;4.40;100.00;101804.16;5053908;28;19921;-84
2022/01/06 12:10:41;;;;;;;;;;;;;;;4.43;100.00;101807.00;5053162;28;19927;-86
2022/01/06 12:13:07;;;;;;;;;;;;;;;4.50;100.00;101808.38;5053360;28;19983;-88
2022/01/06 12:15:33;;;;;;;;;;;;;;;4.49;100.00;101802.25;5053602;28;20418;-81
2022/01/06 12:18:00;;;;;;;;;;;;;;;4.63;100.00;101794.53;5053249;28;19924;-86
2022/01/06 12:20:26;;;;;;;;;;;;;;;4.72;100.00;101797.84;5052904;28;20375;-83
2022/01/06 12:22:52;;;;;;;;;;;;;;;4.87;100.00;101782.44;5052709;28;20011;-86
2022/01/06 12:25:26;;;;;;;;;;;;;;;5.14;100.00;101782.63;5054094;28;20357;-88
2022/01/06 12:27:53;;;;;;;;;;;;;;;5.28;100.00;101783.63;5053051;28;20434;-85
2022/01/06 12:30:19;;;;;;;;;;;;;;;5.36;100.00;101775.56;5055015;28;19925;-82
2022/01/06 12:33:13;;;;;;;;;;;;;;;5.40;100.00;101779.28;5039297;28;20361;-86
2022/01/06 12:35:43;;;;;;;;;;;;;;;5.19;100.00;101776.97;5033049;28;20357;-83
2022/01/06 12:38:09;;;;;;;;;;;;;;;5.18;100.00;101779.47;5049850;28;19921;-86
2022/01/06 12:40:37;;;;;;;;;;;;;;;5.09;100.00;101770.97;5050672;28;20022;-82
2022/01/06 12:43:24;;;;;;;;;;;;;;;5.09;100.00;101771.84;5049890;28;20011;-86
2022/01/06 12:46:00;;;;;;;;;;;;;;;5.05;100.00;101777.66;5033595;28;19921;-84
2022/01/06 12:48:28;;;;;;;;;;;;;;;4.88;100.00;101781.66;5054040;28;19928;-88